sensor_id;sensor_type;location;lat;lon;timestamp;P1;durP1;ratioP1;P2;durP2;ratioP2
22924;SDS011;11628;51.072;3.712;2022-10-16T00:01:18;9.75;;;3.97;;
22924;SDS011;11628;51.072;3.712;2022-10-16T00:03:46;7.82;;;3.80;;
22924;SDS011;11628;51.072;3.712;2022-10-16T00:06:12;4.93;;;2.42;;
22924;SDS011;11628;51.072;3.712;2022-10-16T00:08:41;8.52;;;4.28;;
22924;SDS011;11628;51.072;3.712;2022-10-16T00:11:08;7.60;;;3.15;;
22924;SDS011;11628;51.072;3.712;2022-10-16T00:13:40;20.75;;;9.15;;
22924;SDS011;11628;51.072;3.712;2022-10-16T00:16:07;16.55;;;8.00;;
22924;SDS011;11628;51.072;3.712;2022-10-16T00:18:33;22.83;;;9.30;;
22924;SDS011;11628;51.072;3.712;2022-10-16T00:21:03;19.05;;;7.68;;
22924;SDS011;11628;51.072;3.712;2022-10-16T00:23:31;15.73;;;6.43;;
22924;SDS011;11628;51.072;3.712;2022-10-16T00:25:57;27.27;;;11.43;;
22924;SDS011;11628;51.072;3.712;2022-10-16T00:28:25;37.70;;;15.98;;
22924;SDS011;11628;51.072;3.712;2022-10-16T00:30:51;21.00;;;9.35;;
22924;SDS011;11628;51.072;3.712;2022-10-16T00:33:17;24.48;;;10.15;;
22924;SDS011;11628;51.072;3.712;2022-10-16T00:35:43;38.25;;;16.95;;
22924;SDS011;11628;51.072;3.712;2022-10-16T00:38:09;10.65;;;5.90;;
22924;SDS011;11628;51.072;3.712;2022-10-16T00:40:35;7.20;;;4.90;;
22924;SDS011;11628;51.072;3.712;2022-10-16T00:43:00;20.33;;;18.48;;
22924;SDS011;11628;51.072;3.712;2022-10-16T00:45:26;8.52;;;7.88;;
22924;SDS011;11628;51.072;3.712;2022-10-16T00:47:52;3.15;;;1.90;;
22924;SDS011;11628;51.072;3.712;2022-10-16T00:50:28;9.15;;;6.97;;
22924;SDS011;11628;51.072;3.712;2022-10-16T00:52:56;3.40;;;2.05;;
22924;SDS011;11628;51.072;3.712;2022-10-16T00:55:23;3.15;;;1.27;;
22924;SDS011;11628;51.072;3.712;2022-10-16T00:57:50;3.75;;;1.90;;
22924;SDS011;11628;51.072;3.712;2022-10-16T01:00:18;3.00;;;1.55;;
22924;SDS011;11628;51.072;3.712;2022-10-16T01:02:54;3.10;;;1.40;;
22924;SDS011;11628;51.072;3.712;2022-10-16T01:05:27;1.45;;;1.23;;
22924;SDS011;11628;51.072;3.712;2022-10-16T01:08:05;1.70;;;1.08;;
22924;SDS011;11628;51.072;3.712;2022-10-16T01:10:44;1.38;;;1.17;;
22924;SDS011;11628;51.072;3.712;2022-10-16T01:13:26;1.65;;;1.00;;
22924;SDS011;11628;51.072;3.712;2022-10-16T01:18:36;1.60;;;1.25;;
22924;SDS011;11628;51.072;3.712;2022-10-16T01:21:24;5.13;;;3.10;;
22924;SDS011;11628;51.072;3.712;2022-10-16T01:24:02;3.53;;;2.15;;
22924;SDS011;11628;51.072;3.712;2022-10-16T01:35:14;1.95;;;0.85;;
22924;SDS011;11628;51.072;3.712;2022-10-16T01:37:48;2.88;;;0.90;;
22924;SDS011;11628;51.072;3.712;2022-10-16T01:40:28;1.40;;;0.90;;
22924;SDS011;11628;51.072;3.712;2022-10-16T01:43:03;1.52;;;1.30;;
22924;SDS011;11628;51.072;3.712;2022-10-16T01:45:33;1.70;;;1.35;;
22924;SDS011;11628;51.072;3.712;2022-10-16T01:48:04;1.50;;;0.95;;
22924;SDS011;11628;51.072;3.712;2022-10-16T01:50:33;2.35;;;1.27;;
22924;SDS011;11628;51.072;3.712;2022-10-16T01:53:02;3.15;;;1.15;;
22924;SDS011;11628;51.072;3.712;2022-10-16T01:55:35;3.13;;;1.05;;
22924;SDS011;11628;51.072;3.712;2022-10-16T01:58:03;3.20;;;1.15;;
22924;SDS011;11628;51.072;3.712;2022-10-16T02:00:32;3.13;;;0.93;;
22924;SDS011;11628;51.072;3.712;2022-10-16T02:03:01;1.42;;;1.00;;
22924;SDS011;11628;51.072;3.712;2022-10-16T02:05:30;5.25;;;1.08;;
22924;SDS011;11628;51.072;3.712;2022-10-16T02:08:02;2.58;;;1.20;;
22924;SDS011;11628;51.072;3.712;2022-10-16T02:10:28;2.15;;;1.00;;
22924;SDS011;11628;51.072;3.712;2022-10-16T02:15:51;3.53;;;1.20;;
22924;SDS011;11628;51.072;3.712;2022-10-16T02:18:17;1.70;;;0.90;;
22924;SDS011;11628;51.072;3.712;2022-10-16T02:20:48;2.95;;;1.10;;
22924;SDS011;11628;51.072;3.712;2022-10-16T02:26:17;2.45;;;1.10;;
22924;SDS011;11628;51.072;3.712;2022-10-16T02:28:59;1.75;;;1.00;;
22924;SDS011;11628;51.072;3.712;2022-10-16T02:31:30;3.40;;;1.00;;
22924;SDS011;11628;51.072;3.712;2022-10-16T02:33:59;2.42;;;1.10;;
22924;SDS011;11628;51.072;3.712;2022-10-16T02:36:26;2.45;;;1.10;;
22924;SDS011;11628;51.072;3.712;2022-10-16T02:38:53;1.52;;;0.88;;
22924;SDS011;11628;51.072;3.712;2022-10-16T02:41:20;3.80;;;1.45;;
22924;SDS011;11628;51.072;3.712;2022-10-16T02:43:46;2.72;;;1.35;;
22924;SDS011;11628;51.072;3.712;2022-10-16T02:46:12;2.05;;;1.30;;
22924;SDS011;11628;51.072;3.712;2022-10-16T02:48:38;2.63;;;1.25;;
22924;SDS011;11628;51.072;3.712;2022-10-16T02:51:04;3.42;;;1.33;;
22924;SDS011;11628;51.072;3.712;2022-10-16T02:53:30;2.92;;;1.20;;
22924;SDS011;11628;51.072;3.712;2022-10-16T02:55:55;3.85;;;1.20;;
22924;SDS011;11628;51.072;3.712;2022-10-16T02:58:21;5.32;;;1.60;;
22924;SDS011;11628;51.072;3.712;2022-10-16T03:00:47;4.20;;;1.20;;
22924;SDS011;11628;51.072;3.712;2022-10-16T03:03:13;1.40;;;0.98;;
22924;SDS011;11628;51.072;3.712;2022-10-16T03:05:38;3.05;;;1.38;;
22924;SDS011;11628;51.072;3.712;2022-10-16T03:08:04;2.03;;;1.15;;
22924;SDS011;11628;51.072;3.712;2022-10-16T03:10:30;2.75;;;1.52;;
22924;SDS011;11628;51.072;3.712;2022-10-16T03:12:55;2.70;;;1.30;;
22924;SDS011;11628;51.072;3.712;2022-10-16T03:15:21;3.42;;;1.23;;
22924;SDS011;11628;51.072;3.712;2022-10-16T03:17:47;3.17;;;1.20;;
22924;SDS011;11628;51.072;3.712;2022-10-16T03:20:13;2.58;;;1.30;;
22924;SDS011;11628;51.072;3.712;2022-10-16T03:22:38;2.35;;;1.10;;
22924;SDS011;11628;51.072;3.712;2022-10-16T03:25:04;1.65;;;1.00;;
22924;SDS011;11628;51.072;3.712;2022-10-16T03:27:30;4.70;;;1.48;;
22924;SDS011;11628;51.072;3.712;2022-10-16T03:29:59;3.85;;;2.15;;
22924;SDS011;11628;51.072;3.712;2022-10-16T03:32:24;1.80;;;1.17;;
22924;SDS011;11628;51.072;3.712;2022-10-16T03:34:50;1.42;;;1.20;;
22924;SDS011;11628;51.072;3.712;2022-10-16T03:37:15;2.40;;;1.15;;
22924;SDS011;11628;51.072;3.712;2022-10-16T03:39:41;2.30;;;1.10;;
22924;SDS011;11628;51.072;3.712;2022-10-16T03:42:07;2.75;;;1.10;;
22924;SDS011;11628;51.072;3.712;2022-10-16T03:44:38;2.35;;;0.95;;
22924;SDS011;11628;51.072;3.712;2022-10-16T03:47:04;3.20;;;1.30;;
22924;SDS011;11628;51.072;3.712;2022-10-16T03:49:30;5.57;;;1.58;;
22924;SDS011;11628;51.072;3.712;2022-10-16T03:51:55;3.38;;;1.38;;
22924;SDS011;11628;51.072;3.712;2022-10-16T03:54:21;3.50;;;1.10;;
22924;SDS011;11628;51.072;3.712;2022-10-16T03:56:47;2.60;;;1.20;;
22924;SDS011;11628;51.072;3.712;2022-10-16T03:59:13;3.92;;;1.50;;
22924;SDS011;11628;51.072;3.712;2022-10-16T04:01:39;2.70;;;1.30;;
22924;SDS011;11628;51.072;3.712;2022-10-16T04:04:05;2.15;;;1.10;;
22924;SDS011;11628;51.072;3.712;2022-10-16T04:06:30;5.43;;;1.60;;
22924;SDS011;11628;51.072;3.712;2022-10-16T04:08:56;2.83;;;1.02;;
22924;SDS011;11628;51.072;3.712;2022-10-16T04:11:22;3.35;;;1.40;;
22924;SDS011;11628;51.072;3.712;2022-10-16T04:13:47;3.00;;;1.23;;
22924;SDS011;11628;51.072;3.712;2022-10-16T04:16:13;5.70;;;1.52;;
22924;SDS011;11628;51.072;3.712;2022-10-16T04:18:39;4.47;;;1.05;;
22924;SDS011;11628;51.072;3.712;2022-10-16T04:21:05;3.38;;;1.30;;
22924;SDS011;11628;51.072;3.712;2022-10-16T04:23:32;2.63;;;1.40;;
22924;SDS011;11628;51.072;3.712;2022-10-16T04:25:58;3.88;;;1.48;;
22924;SDS011;11628;51.072;3.712;2022-10-16T04:28:24;4.55;;;1.38;;
22924;SDS011;11628;51.072;3.712;2022-10-16T04:30:50;2.08;;;1.10;;
22924;SDS011;11628;51.072;3.712;2022-10-16T04:33:15;2.60;;;1.42;;
22924;SDS011;11628;51.072;3.712;2022-10-16T04:35:41;2.53;;;1.20;;
22924;SDS011;11628;51.072;3.712;2022-10-16T04:38:07;2.65;;;1.30;;
22924;SDS011;11628;51.072;3.712;2022-10-16T04:40:33;3.22;;;1.27;;
22924;SDS011;11628;51.072;3.712;2022-10-16T04:43:01;5.35;;;1.95;;
22924;SDS011;11628;51.072;3.712;2022-10-16T04:45:30;2.00;;;1.50;;
22924;SDS011;11628;51.072;3.712;2022-10-16T04:47:59;4.93;;;1.35;;
22924;SDS011;11628;51.072;3.712;2022-10-16T04:50:25;2.42;;;1.70;;
22924;SDS011;11628;51.072;3.712;2022-10-16T04:52:51;2.55;;;1.42;;
22924;SDS011;11628;51.072;3.712;2022-10-16T04:55:16;3.70;;;1.48;;
22924;SDS011;11628;51.072;3.712;2022-10-16T04:57:42;4.78;;;1.48;;
22924;SDS011;11628;51.072;3.712;2022-10-16T05:00:08;7.22;;;1.95;;
22924;SDS011;11628;51.072;3.712;2022-10-16T05:02:34;3.50;;;1.45;;
22924;SDS011;11628;51.072;3.712;2022-10-16T05:05:00;3.50;;;1.73;;
22924;SDS011;11628;51.072;3.712;2022-10-16T05:07:26;4.65;;;1.70;;
22924;SDS011;11628;51.072;3.712;2022-10-16T05:09:51;5.25;;;1.60;;
22924;SDS011;11628;51.072;3.712;2022-10-16T05:12:18;2.78;;;1.60;;
22924;SDS011;11628;51.072;3.712;2022-10-16T05:14:46;4.90;;;1.52;;
22924;SDS011;11628;51.072;3.712;2022-10-16T05:17:12;2.00;;;1.55;;
22924;SDS011;11628;51.072;3.712;2022-10-16T05:19:37;5.40;;;1.70;;
22924;SDS011;11628;51.072;3.712;2022-10-16T05:22:03;2.60;;;2.13;;
22924;SDS011;11628;51.072;3.712;2022-10-16T05:24:29;5.32;;;1.70;;
22924;SDS011;11628;51.072;3.712;2022-10-16T05:26:54;5.47;;;1.52;;
22924;SDS011;11628;51.072;3.712;2022-10-16T05:29:20;4.10;;;1.70;;
22924;SDS011;11628;51.072;3.712;2022-10-16T05:31:46;2.70;;;1.60;;
22924;SDS011;11628;51.072;3.712;2022-10-16T05:34:11;5.13;;;2.00;;
22924;SDS011;11628;51.072;3.712;2022-10-16T05:36:37;4.85;;;1.63;;
22924;SDS011;11628;51.072;3.712;2022-10-16T05:39:03;5.05;;;1.60;;
22924;SDS011;11628;51.072;3.712;2022-10-16T05:41:28;4.18;;;1.45;;
22924;SDS011;11628;51.072;3.712;2022-10-16T05:43:54;2.53;;;1.60;;
22924;SDS011;11628;51.072;3.712;2022-10-16T05:46:20;2.25;;;1.38;;
22924;SDS011;11628;51.072;3.712;2022-10-16T05:48:46;3.50;;;1.40;;
22924;SDS011;11628;51.072;3.712;2022-10-16T05:51:13;4.25;;;1.45;;
22924;SDS011;11628;51.072;3.712;2022-10-16T05:53:39;2.38;;;1.20;;
22924;SDS011;11628;51.072;3.712;2022-10-16T05:56:06;4.60;;;1.40;;
22924;SDS011;11628;51.072;3.712;2022-10-16T05:58:35;4.00;;;1.95;;
22924;SDS011;11628;51.072;3.712;2022-10-16T06:03:29;2.72;;;1.45;;
22924;SDS011;11628;51.072;3.712;2022-10-16T06:05:55;1.92;;;1.30;;
22924;SDS011;11628;51.072;3.712;2022-10-16T06:08:21;6.72;;;1.60;;
22924;SDS011;11628;51.072;3.712;2022-10-16T06:10:48;3.78;;;1.40;;
22924;SDS011;11628;51.072;3.712;2022-10-16T06:13:14;5.95;;;2.13;;
22924;SDS011;11628;51.072;3.712;2022-10-16T06:15:41;5.70;;;1.77;;
22924;SDS011;11628;51.072;3.712;2022-10-16T06:18:08;3.53;;;1.55;;
22924;SDS011;11628;51.072;3.712;2022-10-16T06:20:34;7.95;;;1.83;;
22924;SDS011;11628;51.072;3.712;2022-10-16T06:23:01;5.45;;;1.60;;
22924;SDS011;11628;51.072;3.712;2022-10-16T06:25:29;3.72;;;1.45;;
22924;SDS011;11628;51.072;3.712;2022-10-16T06:27:58;6.10;;;1.60;;
22924;SDS011;11628;51.072;3.712;2022-10-16T06:30:24;4.93;;;1.80;;
22924;SDS011;11628;51.072;3.712;2022-10-16T06:32:49;5.25;;;1.63;;
22924;SDS011;11628;51.072;3.712;2022-10-16T06:35:15;5.25;;;1.77;;
22924;SDS011;11628;51.072;3.712;2022-10-16T06:37:41;4.68;;;1.73;;
22924;SDS011;11628;51.072;3.712;2022-10-16T06:40:06;5.03;;;1.73;;
22924;SDS011;11628;51.072;3.712;2022-10-16T06:42:32;6.65;;;1.83;;
22924;SDS011;11628;51.072;3.712;2022-10-16T06:44:58;3.10;;;2.00;;
22924;SDS011;11628;51.072;3.712;2022-10-16T06:47:24;4.05;;;1.65;;
22924;SDS011;11628;51.072;3.712;2022-10-16T06:49:49;4.78;;;1.50;;
22924;SDS011;11628;51.072;3.712;2022-10-16T06:52:15;2.65;;;1.60;;
22924;SDS011;11628;51.072;3.712;2022-10-16T06:54:40;6.75;;;2.45;;
22924;SDS011;11628;51.072;3.712;2022-10-16T06:57:06;4.68;;;1.85;;
22924;SDS011;11628;51.072;3.712;2022-10-16T06:59:32;5.43;;;2.22;;
22924;SDS011;11628;51.072;3.712;2022-10-16T07:01:58;4.70;;;1.77;;
22924;SDS011;11628;51.072;3.712;2022-10-16T07:04:23;5.60;;;2.35;;
22924;SDS011;11628;51.072;3.712;2022-10-16T07:06:49;6.55;;;1.70;;
22924;SDS011;11628;51.072;3.712;2022-10-16T07:09:16;4.32;;;1.75;;
22924;SDS011;11628;51.072;3.712;2022-10-16T07:11:42;3.42;;;1.75;;
22924;SDS011;11628;51.072;3.712;2022-10-16T07:14:18;4.30;;;1.40;;
22924;SDS011;11628;51.072;3.712;2022-10-16T07:16:45;4.80;;;1.40;;
22924;SDS011;11628;51.072;3.712;2022-10-16T07:19:11;3.58;;;1.42;;
22924;SDS011;11628;51.072;3.712;2022-10-16T07:21:39;5.93;;;2.08;;
22924;SDS011;11628;51.072;3.712;2022-10-16T07:24:06;4.90;;;1.42;;
22924;SDS011;11628;51.072;3.712;2022-10-16T07:26:36;3.38;;;1.90;;
22924;SDS011;11628;51.072;3.712;2022-10-16T07:29:04;4.70;;;1.98;;
22924;SDS011;11628;51.072;3.712;2022-10-16T07:31:37;3.80;;;1.40;;
22924;SDS011;11628;51.072;3.712;2022-10-16T07:34:03;5.25;;;1.67;;
22924;SDS011;11628;51.072;3.712;2022-10-16T07:36:29;3.53;;;1.25;;
22924;SDS011;11628;51.072;3.712;2022-10-16T07:38:54;4.97;;;1.52;;
22924;SDS011;11628;51.072;3.712;2022-10-16T07:41:20;4.07;;;2.00;;
22924;SDS011;11628;51.072;3.712;2022-10-16T07:43:49;3.92;;;1.70;;
22924;SDS011;11628;51.072;3.712;2022-10-16T07:46:17;4.68;;;1.67;;
22924;SDS011;11628;51.072;3.712;2022-10-16T07:48:44;4.45;;;1.40;;
22924;SDS011;11628;51.072;3.712;2022-10-16T07:51:12;6.93;;;1.30;;
22924;SDS011;11628;51.072;3.712;2022-10-16T07:53:42;3.08;;;1.20;;
22924;SDS011;11628;51.072;3.712;2022-10-16T07:56:08;3.15;;;1.70;;
22924;SDS011;11628;51.072;3.712;2022-10-16T07:58:34;4.05;;;1.85;;
22924;SDS011;11628;51.072;3.712;2022-10-16T08:01:04;4.95;;;1.67;;
22924;SDS011;11628;51.072;3.712;2022-10-16T08:03:31;6.30;;;1.70;;
22924;SDS011;11628;51.072;3.712;2022-10-16T08:05:57;4.70;;;2.15;;
22924;SDS011;11628;51.072;3.712;2022-10-16T08:08:23;5.00;;;1.50;;
22924;SDS011;11628;51.072;3.712;2022-10-16T08:10:49;5.28;;;1.30;;
22924;SDS011;11628;51.072;3.712;2022-10-16T08:13:14;5.40;;;1.83;;
22924;SDS011;11628;51.072;3.712;2022-10-16T08:15:43;3.97;;;1.30;;
22924;SDS011;11628;51.072;3.712;2022-10-16T08:18:11;5.45;;;1.48;;
22924;SDS011;11628;51.072;3.712;2022-10-16T08:20:40;5.35;;;1.88;;
22924;SDS011;11628;51.072;3.712;2022-10-16T08:23:07;4.63;;;1.52;;
22924;SDS011;11628;51.072;3.712;2022-10-16T08:25:34;4.60;;;1.33;;
22924;SDS011;11628;51.072;3.712;2022-10-16T08:28:04;3.80;;;1.42;;
22924;SDS011;11628;51.072;3.712;2022-10-16T08:30:34;3.35;;;1.08;;
22924;SDS011;11628;51.072;3.712;2022-10-16T08:33:01;4.07;;;1.30;;
22924;SDS011;11628;51.072;3.712;2022-10-16T08:35:26;3.67;;;1.25;;
22924;SDS011;11628;51.072;3.712;2022-10-16T08:37:52;6.18;;;2.78;;
22924;SDS011;11628;51.072;3.712;2022-10-16T08:40:19;3.92;;;1.45;;
22924;SDS011;11628;51.072;3.712;2022-10-16T08:43:05;4.53;;;1.08;;
22924;SDS011;11628;51.072;3.712;2022-10-16T08:51:25;6.10;;;1.08;;
22924;SDS011;11628;51.072;3.712;2022-10-16T08:53:58;7.32;;;1.20;;
22924;SDS011;11628;51.072;3.712;2022-10-16T08:56:27;7.30;;;1.73;;
22924;SDS011;11628;51.072;3.712;2022-10-16T08:58:57;6.43;;;4.50;;
22924;SDS011;11628;51.072;3.712;2022-10-16T09:01:24;5.55;;;1.65;;
22924;SDS011;11628;51.072;3.712;2022-10-16T09:04:07;4.72;;;1.40;;
22924;SDS011;11628;51.072;3.712;2022-10-16T09:09:46;4.18;;;1.20;;
22924;SDS011;11628;51.072;3.712;2022-10-16T09:19:46;3.65;;;1.40;;
22924;SDS011;11628;51.072;3.712;2022-10-16T09:22:21;5.75;;;1.65;;
22924;SDS011;11628;51.072;3.712;2022-10-16T09:24:53;4.00;;;1.42;;
22924;SDS011;11628;51.072;3.712;2022-10-16T09:27:24;3.60;;;1.05;;
22924;SDS011;11628;51.072;3.712;2022-10-16T09:29:51;5.05;;;1.60;;
22924;SDS011;11628;51.072;3.712;2022-10-16T09:32:22;4.90;;;1.17;;
22924;SDS011;11628;51.072;3.712;2022-10-16T09:34:49;7.35;;;1.65;;
22924;SDS011;11628;51.072;3.712;2022-10-16T09:37:18;4.55;;;1.25;;
22924;SDS011;11628;51.072;3.712;2022-10-16T09:39:51;3.80;;;1.40;;
22924;SDS011;11628;51.072;3.712;2022-10-16T09:42:18;8.48;;;2.00;;
22924;SDS011;11628;51.072;3.712;2022-10-16T09:44:48;4.15;;;1.35;;
22924;SDS011;11628;51.072;3.712;2022-10-16T09:47:16;5.97;;;1.23;;
22924;SDS011;11628;51.072;3.712;2022-10-16T09:49:55;4.90;;;1.45;;
22924;SDS011;11628;51.072;3.712;2022-10-16T09:52:24;6.53;;;2.20;;
22924;SDS011;11628;51.072;3.712;2022-10-16T09:54:54;5.97;;;1.75;;
22924;SDS011;11628;51.072;3.712;2022-10-16T09:57:25;4.90;;;1.50;;
22924;SDS011;11628;51.072;3.712;2022-10-16T09:59:52;7.03;;;2.20;;
22924;SDS011;11628;51.072;3.712;2022-10-16T10:02:29;6.72;;;1.80;;
22924;SDS011;11628;51.072;3.712;2022-10-16T10:04:59;6.22;;;1.20;;
22924;SDS011;11628;51.072;3.712;2022-10-16T10:07:29;7.82;;;1.40;;
22924;SDS011;11628;51.072;3.712;2022-10-16T10:10:00;7.95;;;1.92;;
22924;SDS011;11628;51.072;3.712;2022-10-16T10:12:29;6.20;;;1.67;;
22924;SDS011;11628;51.072;3.712;2022-10-16T10:15:07;6.90;;;1.48;;
22924;SDS011;11628;51.072;3.712;2022-10-16T10:17:47;6.43;;;2.67;;
22924;SDS011;11628;51.072;3.712;2022-10-16T10:20:27;4.03;;;1.50;;
22924;SDS011;11628;51.072;3.712;2022-10-16T10:22:56;6.00;;;1.33;;
22924;SDS011;11628;51.072;3.712;2022-10-16T10:25:25;4.22;;;1.88;;
22924;SDS011;11628;51.072;3.712;2022-10-16T10:33:25;4.50;;;1.92;;
22924;SDS011;11628;51.072;3.712;2022-10-16T10:35:57;5.75;;;1.48;;
22924;SDS011;11628;51.072;3.712;2022-10-16T10:44:03;7.72;;;1.55;;
22924;SDS011;11628;51.072;3.712;2022-10-16T11:06:22;8.02;;;2.05;;
22924;SDS011;11628;51.072;3.712;2022-10-16T11:09:14;6.63;;;2.30;;
22924;SDS011;11628;51.072;3.712;2022-10-16T11:11:50;4.15;;;1.25;;
22924;SDS011;11628;51.072;3.712;2022-10-16T11:14:28;7.40;;;2.10;;
22924;SDS011;11628;51.072;3.712;2022-10-16T11:17:04;7.88;;;1.50;;
22924;SDS011;11628;51.072;3.712;2022-10-16T11:19:44;8.80;;;1.58;;
22924;SDS011;11628;51.072;3.712;2022-10-16T11:27:49;6.80;;;2.58;;
22924;SDS011;11628;51.072;3.712;2022-10-16T11:30:18;6.82;;;1.95;;
22924;SDS011;11628;51.072;3.712;2022-10-16T11:35:23;6.60;;;1.40;;
22924;SDS011;11628;51.072;3.712;2022-10-16T11:37:57;8.60;;;1.98;;
22924;SDS011;11628;51.072;3.712;2022-10-16T11:40:31;6.45;;;1.45;;
22924;SDS011;11628;51.072;3.712;2022-10-16T11:43:06;8.40;;;1.90;;
22924;SDS011;11628;51.072;3.712;2022-10-16T11:45:44;6.03;;;1.33;;
22924;SDS011;11628;51.072;3.712;2022-10-16T11:51:25;7.50;;;1.30;;
22924;SDS011;11628;51.072;3.712;2022-10-16T11:57:01;9.82;;;2.33;;
22924;SDS011;11628;51.072;3.712;2022-10-16T11:59:45;5.40;;;1.38;;
22924;SDS011;11628;51.072;3.712;2022-10-16T12:08:06;5.53;;;1.00;;
22924;SDS011;11628;51.072;3.712;2022-10-16T12:10:36;2.83;;;0.85;;
22924;SDS011;11628;51.072;3.712;2022-10-16T12:13:04;4.45;;;1.15;;
22924;SDS011;11628;51.072;3.712;2022-10-16T12:15:50;7.78;;;2.05;;
22924;SDS011;11628;51.072;3.712;2022-10-16T12:18:22;5.03;;;1.27;;
22924;SDS011;11628;51.072;3.712;2022-10-16T12:20:55;4.68;;;1.23;;
22924;SDS011;11628;51.072;3.712;2022-10-16T12:23:24;3.88;;;1.08;;
22924;SDS011;11628;51.072;3.712;2022-10-16T12:25:53;5.00;;;1.25;;
22924;SDS011;11628;51.072;3.712;2022-10-16T12:28:21;4.78;;;1.42;;
22924;SDS011;11628;51.072;3.712;2022-10-16T12:31:02;4.53;;;1.15;;
22924;SDS011;11628;51.072;3.712;2022-10-16T12:33:36;2.63;;;0.70;;
22924;SDS011;11628;51.072;3.712;2022-10-16T12:36:15;3.50;;;1.23;;
22924;SDS011;11628;51.072;3.712;2022-10-16T12:38:52;4.20;;;1.45;;
22924;SDS011;11628;51.072;3.712;2022-10-16T12:41:26;4.20;;;1.30;;
22924;SDS011;11628;51.072;3.712;2022-10-16T12:44:01;3.78;;;1.17;;
22924;SDS011;11628;51.072;3.712;2022-10-16T12:49:05;3.38;;;1.10;;
22924;SDS011;11628;51.072;3.712;2022-10-16T12:51:46;4.90;;;1.20;;
22924;SDS011;11628;51.072;3.712;2022-10-16T13:10:40;3.83;;;0.88;;
22924;SDS011;11628;51.072;3.712;2022-10-16T13:21:19;3.38;;;0.98;;
22924;SDS011;11628;51.072;3.712;2022-10-16T13:24:08;3.72;;;0.98;;
22924;SDS011;11628;51.072;3.712;2022-10-16T13:27:09;4.65;;;1.15;;
22924;SDS011;11628;51.072;3.712;2022-10-16T13:29:52;5.15;;;0.75;;
22924;SDS011;11628;51.072;3.712;2022-10-16T13:32:25;1.58;;;0.70;;
22924;SDS011;11628;51.072;3.712;2022-10-16T13:34:52;2.67;;;1.15;;
22924;SDS011;11628;51.072;3.712;2022-10-16T13:37:19;3.88;;;0.93;;
22924;SDS011;11628;51.072;3.712;2022-10-16T13:39:47;4.70;;;0.95;;
22924;SDS011;11628;51.072;3.712;2022-10-16T13:42:14;3.58;;;1.15;;
22924;SDS011;11628;51.072;3.712;2022-10-16T13:44:53;4.53;;;0.63;;
22924;SDS011;11628;51.072;3.712;2022-10-16T13:47:24;3.85;;;0.90;;
22924;SDS011;11628;51.072;3.712;2022-10-16T13:50:01;2.72;;;0.63;;
22924;SDS011;11628;51.072;3.712;2022-10-16T13:52:31;3.45;;;0.85;;
22924;SDS011;11628;51.072;3.712;2022-10-16T13:54:57;8.20;;;1.17;;
22924;SDS011;11628;51.072;3.712;2022-10-16T13:57:24;3.47;;;0.80;;
22924;SDS011;11628;51.072;3.712;2022-10-16T13:59:50;3.55;;;0.90;;
22924;SDS011;11628;51.072;3.712;2022-10-16T14:04:51;2.05;;;0.68;;
22924;SDS011;11628;51.072;3.712;2022-10-16T14:07:20;3.22;;;0.70;;
22924;SDS011;11628;51.072;3.712;2022-10-16T14:09:51;4.47;;;1.63;;
22924;SDS011;11628;51.072;3.712;2022-10-16T14:12:18;3.88;;;0.80;;
22924;SDS011;11628;51.072;3.712;2022-10-16T14:14:48;2.20;;;0.80;;
22924;SDS011;11628;51.072;3.712;2022-10-16T14:17:21;2.00;;;0.90;;
22924;SDS011;11628;51.072;3.712;2022-10-16T14:19:50;2.15;;;0.80;;
22924;SDS011;11628;51.072;3.712;2022-10-16T14:22:27;3.20;;;0.85;;
22924;SDS011;11628;51.072;3.712;2022-10-16T14:25:01;5.00;;;0.83;;
22924;SDS011;11628;51.072;3.712;2022-10-16T14:27:44;3.72;;;1.10;;
22924;SDS011;11628;51.072;3.712;2022-10-16T14:30:12;4.10;;;0.93;;
22924;SDS011;11628;51.072;3.712;2022-10-16T14:32:41;2.50;;;0.82;;
22924;SDS011;11628;51.072;3.712;2022-10-16T14:35:24;3.42;;;0.90;;
22924;SDS011;11628;51.072;3.712;2022-10-16T14:37:52;3.38;;;0.77;;
22924;SDS011;11628;51.072;3.712;2022-10-16T14:40:18;2.40;;;0.70;;
22924;SDS011;11628;51.072;3.712;2022-10-16T14:42:45;2.08;;;0.80;;
22924;SDS011;11628;51.072;3.712;2022-10-16T14:45:11;4.82;;;1.00;;
22924;SDS011;11628;51.072;3.712;2022-10-16T14:47:37;3.40;;;1.00;;
22924;SDS011;11628;51.072;3.712;2022-10-16T14:50:14;0.95;;;0.60;;
22924;SDS011;11628;51.072;3.712;2022-10-16T14:52:40;3.63;;;1.63;;
22924;SDS011;11628;51.072;3.712;2022-10-16T14:55:05;5.30;;;1.33;;
22924;SDS011;11628;51.072;3.712;2022-10-16T14:57:33;2.53;;;0.70;;
22924;SDS011;11628;51.072;3.712;2022-10-16T15:00:03;2.45;;;0.65;;
22924;SDS011;11628;51.072;3.712;2022-10-16T15:02:41;1.83;;;0.60;;
22924;SDS011;11628;51.072;3.712;2022-10-16T15:05:17;2.92;;;1.00;;
22924;SDS011;11628;51.072;3.712;2022-10-16T15:07:52;3.35;;;1.83;;
22924;SDS011;11628;51.072;3.712;2022-10-16T15:10:19;2.88;;;1.00;;
22924;SDS011;11628;51.072;3.712;2022-10-16T15:12:50;1.42;;;0.60;;
22924;SDS011;11628;51.072;3.712;2022-10-16T15:18:12;3.05;;;1.25;;
22924;SDS011;11628;51.072;3.712;2022-10-16T15:20:39;2.88;;;1.05;;
22924;SDS011;11628;51.072;3.712;2022-10-16T15:23:15;2.97;;;0.80;;
22924;SDS011;11628;51.072;3.712;2022-10-16T15:25:43;14.43;;;12.90;;
22924;SDS011;11628;51.072;3.712;2022-10-16T15:28:11;2.90;;;1.10;;
22924;SDS011;11628;51.072;3.712;2022-10-16T15:30:38;3.22;;;1.13;;
22924;SDS011;11628;51.072;3.712;2022-10-16T15:33:05;2.40;;;0.95;;
22924;SDS011;11628;51.072;3.712;2022-10-16T15:35:36;3.95;;;1.00;;
22924;SDS011;11628;51.072;3.712;2022-10-16T15:38:01;2.50;;;0.80;;
22924;SDS011;11628;51.072;3.712;2022-10-16T15:40:27;1.83;;;0.70;;
22924;SDS011;11628;51.072;3.712;2022-10-16T15:42:53;2.60;;;0.93;;
22924;SDS011;11628;51.072;3.712;2022-10-16T15:45:19;3.35;;;1.10;;
22924;SDS011;11628;51.072;3.712;2022-10-16T15:47:45;4.43;;;1.27;;
22924;SDS011;11628;51.072;3.712;2022-10-16T15:50:12;2.30;;;1.10;;
22924;SDS011;11628;51.072;3.712;2022-10-16T15:52:39;3.80;;;1.30;;
22924;SDS011;11628;51.072;3.712;2022-10-16T15:55:06;3.55;;;1.50;;
22924;SDS011;11628;51.072;3.712;2022-10-16T15:57:35;3.55;;;1.33;;
22924;SDS011;11628;51.072;3.712;2022-10-16T16:00:04;5.38;;;1.30;;
22924;SDS011;11628;51.072;3.712;2022-10-16T16:02:31;6.60;;;1.77;;
22924;SDS011;11628;51.072;3.712;2022-10-16T16:04:57;4.45;;;1.40;;
22924;SDS011;11628;51.072;3.712;2022-10-16T16:07:23;3.85;;;1.42;;
22924;SDS011;11628;51.072;3.712;2022-10-16T16:09:48;4.30;;;1.77;;
22924;SDS011;11628;51.072;3.712;2022-10-16T16:12:14;2.60;;;1.00;;
22924;SDS011;11628;51.072;3.712;2022-10-16T16:14:39;4.20;;;1.17;;
22924;SDS011;11628;51.072;3.712;2022-10-16T16:17:05;4.65;;;0.95;;
22924;SDS011;11628;51.072;3.712;2022-10-16T16:19:31;11.85;;;6.15;;
22924;SDS011;11628;51.072;3.712;2022-10-16T16:21:58;2.30;;;1.38;;
22924;SDS011;11628;51.072;3.712;2022-10-16T16:24:24;4.10;;;1.27;;
22924;SDS011;11628;51.072;3.712;2022-10-16T16:26:49;3.83;;;1.10;;
22924;SDS011;11628;51.072;3.712;2022-10-16T16:29:15;3.15;;;1.27;;
22924;SDS011;11628;51.072;3.712;2022-10-16T16:31:41;2.92;;;1.17;;
22924;SDS011;11628;51.072;3.712;2022-10-16T16:34:08;4.47;;;1.10;;
22924;SDS011;11628;51.072;3.712;2022-10-16T16:36:34;3.20;;;1.02;;
22924;SDS011;11628;51.072;3.712;2022-10-16T16:39:00;3.13;;;1.30;;
22924;SDS011;11628;51.072;3.712;2022-10-16T16:41:27;3.47;;;1.35;;
22924;SDS011;11628;51.072;3.712;2022-10-16T16:43:55;3.67;;;1.13;;
22924;SDS011;11628;51.072;3.712;2022-10-16T16:46:26;4.63;;;2.13;;
22924;SDS011;11628;51.072;3.712;2022-10-16T16:48:52;2.80;;;1.30;;
22924;SDS011;11628;51.072;3.712;2022-10-16T16:51:20;5.75;;;1.63;;
22924;SDS011;11628;51.072;3.712;2022-10-16T16:53:47;5.30;;;1.73;;
22924;SDS011;11628;51.072;3.712;2022-10-16T16:56:14;4.30;;;1.85;;
22924;SDS011;11628;51.072;3.712;2022-10-16T16:58:40;3.35;;;1.75;;